sensor_id;sensor_type;location;lat;lon;timestamp;pressure;altitude;pressure_sealevel;temperature;humidity
62600;BME280;48671;48.922;2.346;2022-12-07T00:00:49;101984.88;;;4.03;76.45
62600;BME280;48671;48.922;2.346;2022-12-07T00:03:14;101983.16;;;4.05;76.19
62600;BME280;48671;48.922;2.346;2022-12-07T00:05:40;101982.34;;;4.06;76.06
62600;BME280;48671;48.922;2.346;2022-12-07T00:08:05;101989.19;;;4.07;75.70
62600;BME280;48671;48.922;2.346;2022-12-07T00:10:33;101983.19;;;4.07;75.66
62600;BME280;48671;48.922;2.346;2022-12-07T00:12:58;101990.06;;;4.08;75.74
62600;BME280;48671;48.922;2.346;2022-12-07T00:15:24;101978.84;;;4.01;75.64
62600;BME280;48671;48.922;2.346;2022-12-07T00:17:49;101975.47;;;4.07;75.70
62600;BME280;48671;48.922;2.346;2022-12-07T00:20:14;101978.91;;;4.07;75.77
62600;BME280;48671;48.922;2.346;2022-12-07T00:22:40;101966.03;;;4.07;75.79
62600;BME280;48671;48.922;2.346;2022-12-07T00:25:05;101970.31;;;4.08;76.02
62600;BME280;48671;48.922;2.346;2022-12-07T00:27:30;101969.50;;;4.09;75.91
62600;BME280;48671;48.922;2.346;2022-12-07T00:29:56;101965.22;;;4.13;76.09
62600;BME280;48671;48.922;2.346;2022-12-07T00:32:21;101964.38;;;4.14;75.65
62600;BME280;48671;48.922;2.346;2022-12-07T00:34:46;101969.53;;;4.15;75.54
62600;BME280;48671;48.922;2.346;2022-12-07T00:37:12;101969.53;;;4.18;75.89
62600;BME280;48671;48.922;2.346;2022-12-07T00:39:38;101972.13;;;4.20;75.93
62600;BME280;48671;48.922;2.346;2022-12-07T00:42:03;101971.25;;;4.16;75.59
62600;BME280;48671;48.922;2.346;2022-12-07T00:44:28;101959.25;;;4.15;75.80
62600;BME280;48671;48.922;2.346;2022-12-07T00:46:54;101961.78;;;4.12;76.40
62600;BME280;48671;48.922;2.346;2022-12-07T00:49:20;101960.09;;;4.17;76.39
62600;BME280;48671;48.922;2.346;2022-12-07T00:51:48;101952.34;;;4.14;76.19
62600;BME280;48671;48.922;2.346;2022-12-07T00:54:13;101965.28;;;4.19;76.46
62600;BME280;48671;48.922;2.346;2022-12-07T00:56:39;101961.81;;;4.18;75.73
62600;BME280;48671;48.922;2.346;2022-12-07T00:59:04;101960.94;;;4.18;75.82
62600;BME280;48671;48.922;2.346;2022-12-07T01:01:32;101955.81;;;4.18;75.98
62600;BME280;48671;48.922;2.346;2022-12-07T01:03:58;101954.97;;;4.19;75.64
62600;BME280;48671;48.922;2.346;2022-12-07T01:06:25;101950.66;;;4.18;75.91
62600;BME280;48671;48.922;2.346;2022-12-07T01:08:50;101958.38;;;4.16;76.40
62600;BME280;48671;48.922;2.346;2022-12-07T01:11:19;101949.75;;;4.14;76.36
62600;BME280;48671;48.922;2.346;2022-12-07T01:13:45;101946.34;;;4.14;76.27
62600;BME280;48671;48.922;2.346;2022-12-07T01:16:15;101957.44;;;4.07;76.11
62600;BME280;48671;48.922;2.346;2022-12-07T01:18:42;101953.13;;;4.03;76.24
62600;BME280;48671;48.922;2.346;2022-12-07T01:23:34;101944.50;;;3.96;75.91
62600;BME280;48671;48.922;2.346;2022-12-07T01:26:02;101952.22;;;3.96;76.34
62600;BME280;48671;48.922;2.346;2022-12-07T01:28:28;101946.19;;;3.92;76.58
62600;BME280;48671;48.922;2.346;2022-12-07T01:31:14;101946.16;;;3.91;76.09
62600;BME280;48671;48.922;2.346;2022-12-07T01:33:43;101941.84;;;3.87;76.22
62600;BME280;48671;48.922;2.346;2022-12-07T01:36:18;101944.34;;;3.82;76.46
62600;BME280;48671;48.922;2.346;2022-12-07T01:38:45;101943.50;;;3.80;76.09
62600;BME280;48671;48.922;2.346;2022-12-07T01:41:11;101944.22;;;3.67;75.56
62600;BME280;48671;48.922;2.346;2022-12-07T01:44:16;101952.78;;;3.64;76.08
62600;BME280;48671;48.922;2.346;2022-12-07T01:46:48;101941.53;;;3.55;76.79
62600;BME280;48671;48.922;2.346;2022-12-07T01:49:28;101941.53;;;3.55;76.51
62600;BME280;48671;48.922;2.346;2022-12-07T01:52:14;101944.06;;;3.51;76.87
62600;BME280;48671;48.922;2.346;2022-12-07T01:54:42;101947.44;;;3.46;76.21
62600;BME280;48671;48.922;2.346;2022-12-07T01:57:08;101937.06;;;3.40;76.38
62600;BME280;48671;48.922;2.346;2022-12-07T01:59:35;101934.47;;;3.35;76.78
62600;BME280;48671;48.922;2.346;2022-12-07T02:02:02;101944.75;;;3.34;76.55
62600;BME280;48671;48.922;2.346;2022-12-07T02:04:29;101939.59;;;3.34;76.59
62600;BME280;48671;48.922;2.346;2022-12-07T02:06:54;101930.19;;;3.34;76.89
62600;BME280;48671;48.922;2.346;2022-12-07T02:09:20;101937.09;;;3.43;77.11
62600;BME280;48671;48.922;2.346;2022-12-07T02:11:46;101926.84;;;3.46;77.31
62600;BME280;48671;48.922;2.346;2022-12-07T02:14:11;101932.00;;;3.44;76.64
62600;BME280;48671;48.922;2.346;2022-12-07T02:22:11;101947.47;;;3.49;77.13
62600;BME280;48671;48.922;2.346;2022-12-07T02:25:06;101939.72;;;3.46;76.93
62600;BME280;48671;48.922;2.346;2022-12-07T02:27:49;101938.88;;;3.47;77.10
62600;BME280;48671;48.922;2.346;2022-12-07T02:30:21;101932.91;;;3.51;77.59
62600;BME280;48671;48.922;2.346;2022-12-07T02:38:18;101944.97;;;3.55;77.11
62600;BME280;48671;48.922;2.346;2022-12-07T02:41:02;101936.38;;;3.56;76.70
62600;BME280;48671;48.922;2.346;2022-12-07T02:43:53;101942.38;;;3.55;76.99
62600;BME280;48671;48.922;2.346;2022-12-07T02:46:23;101929.44;;;3.47;76.47
62600;BME280;48671;48.922;2.346;2022-12-07T02:48:51;101935.44;;;3.43;76.77
62600;BME280;48671;48.922;2.346;2022-12-07T02:51:18;101927.59;;;3.34;76.94
62600;BME280;48671;48.922;2.346;2022-12-07T02:53:44;101928.44;;;3.33;76.53
62600;BME280;48671;48.922;2.346;2022-12-07T02:59:40;101921.56;;;3.31;76.73
62600;BME280;48671;48.922;2.346;2022-12-07T03:05:05;101918.06;;;3.24;76.68
62600;BME280;48671;48.922;2.346;2022-12-07T03:07:47;101925.69;;;3.16;76.80
62600;BME280;48671;48.922;2.346;2022-12-07T03:12:48;101930.78;;;3.12;77.24
62600;BME280;48671;48.922;2.346;2022-12-07T03:17:52;101930.75;;;3.09;77.46
62600;BME280;48671;48.922;2.346;2022-12-07T03:20:21;101930.63;;;2.99;77.53
62600;BME280;48671;48.922;2.346;2022-12-07T03:22:49;101923.78;;;2.98;77.08
62600;BME280;48671;48.922;2.346;2022-12-07T03:25:16;101915.16;;;2.95;77.49
62600;BME280;48671;48.922;2.346;2022-12-07T03:27:49;101908.19;;;2.88;77.65
62600;BME280;48671;48.922;2.346;2022-12-07T03:30:19;101901.31;;;2.84;76.75
62600;BME280;48671;48.922;2.346;2022-12-07T03:32:59;101907.22;;;2.76;78.22
62600;BME280;48671;48.922;2.346;2022-12-07T03:38:45;101913.22;;;2.75;78.20
62600;BME280;48671;48.922;2.346;2022-12-07T03:40:59;101911.41;;;2.71;78.70
62600;BME280;48671;48.922;2.346;2022-12-07T03:43:28;101911.38;;;2.67;78.50
62600;BME280;48671;48.922;2.346;2022-12-07T03:46:10;101907.94;;;2.68;78.19
62600;BME280;48671;48.922;2.346;2022-12-07T03:51:22;101902.88;;;2.72;78.40
62600;BME280;48671;48.922;2.346;2022-12-07T03:53:54;101901.19;;;2.73;77.86
62600;BME280;48671;48.922;2.346;2022-12-07T03:56:25;101894.38;;;2.75;78.57
62600;BME280;48671;48.922;2.346;2022-12-07T03:58:53;101893.50;;;2.76;78.21
62600;BME280;48671;48.922;2.346;2022-12-07T04:01:19;101894.38;;;2.76;78.14
62600;BME280;48671;48.922;2.346;2022-12-07T04:03:44;101888.28;;;2.71;78.35
62600;BME280;48671;48.922;2.346;2022-12-07T04:06:10;101894.28;;;2.70;77.87
62600;BME280;48671;48.922;2.346;2022-12-07T04:08:35;101900.31;;;2.72;78.84
62600;BME280;48671;48.922;2.346;2022-12-07T04:11:01;101900.25;;;2.66;78.87
62600;BME280;48671;48.922;2.346;2022-12-07T04:13:26;101906.22;;;2.65;77.95
62600;BME280;48671;48.922;2.346;2022-12-07T04:15:52;101901.06;;;2.64;78.70
62600;BME280;48671;48.922;2.346;2022-12-07T04:18:17;101902.75;;;2.63;78.92
62600;BME280;48671;48.922;2.346;2022-12-07T04:20:42;101906.22;;;2.65;78.69
62600;BME280;48671;48.922;2.346;2022-12-07T04:23:08;101885.69;;;2.67;79.11
62600;BME280;48671;48.922;2.346;2022-12-07T04:25:33;101893.47;;;2.73;78.33
62600;BME280;48671;48.922;2.346;2022-12-07T04:27:58;101902.97;;;2.78;79.02
62600;BME280;48671;48.922;2.346;2022-12-07T04:30:24;101899.53;;;2.78;78.33
62600;BME280;48671;48.922;2.346;2022-12-07T04:32:50;101897.78;;;2.75;78.39
62600;BME280;48671;48.922;2.346;2022-12-07T04:35:15;101897.75;;;2.74;77.54
62600;BME280;48671;48.922;2.346;2022-12-07T04:37:40;101893.44;;;2.68;78.15
62600;BME280;48671;48.922;2.346;2022-12-07T04:40:08;101890.00;;;2.69;78.84
62600;BME280;48671;48.922;2.346;2022-12-07T04:42:36;101886.53;;;2.66;77.61
62600;BME280;48671;48.922;2.346;2022-12-07T04:45:01;101883.88;;;2.61;78.74
62600;BME280;48671;48.922;2.346;2022-12-07T04:47:26;101883.88;;;2.60;77.66
62600;BME280;48671;48.922;2.346;2022-12-07T04:49:51;101883.06;;;2.64;78.36
62600;BME280;48671;48.922;2.346;2022-12-07T04:52:17;101886.50;;;2.63;78.27
62600;BME280;48671;48.922;2.346;2022-12-07T04:54:42;101883.00;;;2.57;78.37
62600;BME280;48671;48.922;2.346;2022-12-07T04:57:07;101872.63;;;2.51;78.04
62600;BME280;48671;48.922;2.346;2022-12-07T04:59:33;101885.47;;;2.51;78.86
62600;BME280;48671;48.922;2.346;2022-12-07T05:01:58;101892.38;;;2.54;78.86
62600;BME280;48671;48.922;2.346;2022-12-07T05:04:23;101886.31;;;2.49;78.25
62600;BME280;48671;48.922;2.346;2022-12-07T05:06:49;101892.41;;;2.55;78.61
62600;BME280;48671;48.922;2.346;2022-12-07T05:09:14;101894.97;;;2.55;78.65
62600;BME280;48671;48.922;2.346;2022-12-07T05:11:39;101895.91;;;2.64;79.25
62600;BME280;48671;48.922;2.346;2022-12-07T05:14:12;101887.38;;;2.66;78.73
62600;BME280;48671;48.922;2.346;2022-12-07T05:16:38;101884.88;;;2.69;78.98
62600;BME280;48671;48.922;2.346;2022-12-07T05:19:05;101886.56;;;2.69;78.71
62600;BME280;48671;48.922;2.346;2022-12-07T05:21:30;101884.78;;;2.65;77.85
62600;BME280;48671;48.922;2.346;2022-12-07T05:23:56;101882.16;;;2.58;78.48
62600;BME280;48671;48.922;2.346;2022-12-07T05:26:21;101888.22;;;2.64;79.26
62600;BME280;48671;48.922;2.346;2022-12-07T05:28:51;101894.25;;;2.66;79.08
62600;BME280;48671;48.922;2.346;2022-12-07T05:31:16;101891.69;;;2.67;78.87
62600;BME280;48671;48.922;2.346;2022-12-07T05:33:42;101896.00;;;2.70;79.64
62600;BME280;48671;48.922;2.346;2022-12-07T05:36:07;101894.28;;;2.69;78.60
62600;BME280;48671;48.922;2.346;2022-12-07T05:38:32;101891.78;;;2.76;78.69
62600;BME280;48671;48.922;2.346;2022-12-07T05:41:06;101899.59;;;2.84;78.81
62600;BME280;48671;48.922;2.346;2022-12-07T05:43:32;101897.06;;;2.87;78.66
62600;BME280;48671;48.922;2.346;2022-12-07T05:45:58;101889.34;;;2.87;78.96
62600;BME280;48671;48.922;2.346;2022-12-07T05:48:24;101884.28;;;2.92;78.33
62600;BME280;48671;48.922;2.346;2022-12-07T05:50:50;101891.91;;;2.87;78.42
62600;BME280;48671;48.922;2.346;2022-12-07T05:53:17;101889.34;;;2.87;78.68
62600;BME280;48671;48.922;2.346;2022-12-07T05:55:43;101890.19;;;2.88;78.45
62600;BME280;48671;48.922;2.346;2022-12-07T05:58:08;101884.19;;;2.86;78.99
62600;BME280;48671;48.922;2.346;2022-12-07T06:00:56;101890.28;;;2.94;78.92
62600;BME280;48671;48.922;2.346;2022-12-07T06:03:25;101886.03;;;2.97;78.07
62600;BME280;48671;48.922;2.346;2022-12-07T06:05:52;101880.84;;;2.93;77.59
62600;BME280;48671;48.922;2.346;2022-12-07T06:08:17;101880.00;;;2.94;78.25
62600;BME280;48671;48.922;2.346;2022-12-07T06:10:43;101881.72;;;2.93;77.69
62600;BME280;48671;48.922;2.346;2022-12-07T06:13:08;101885.97;;;2.90;78.02
62600;BME280;48671;48.922;2.346;2022-12-07T06:15:37;101875.63;;;2.85;78.24
62600;BME280;48671;48.922;2.346;2022-12-07T06:18:03;101878.22;;;2.87;78.36
62600;BME280;48671;48.922;2.346;2022-12-07T06:20:28;101889.34;;;2.87;78.25
62600;BME280;48671;48.922;2.346;2022-12-07T06:22:53;101888.53;;;2.88;78.42
62600;BME280;48671;48.922;2.346;2022-12-07T06:25:19;101874.78;;;2.88;78.43
62600;BME280;48671;48.922;2.346;2022-12-07T06:27:44;101882.53;;;2.91;78.20
62600;BME280;48671;48.922;2.346;2022-12-07T06:30:09;101880.00;;;2.92;78.68
62600;BME280;48671;48.922;2.346;2022-12-07T06:32:36;101887.75;;;2.95;78.00
62600;BME280;48671;48.922;2.346;2022-12-07T06:35:02;101880.88;;;2.96;78.74
62600;BME280;48671;48.922;2.346;2022-12-07T06:37:27;101887.75;;;2.97;78.05
62600;BME280;48671;48.922;2.346;2022-12-07T06:39:53;101886.94;;;2.98;78.25
62600;BME280;48671;48.922;2.346;2022-12-07T06:42:18;101888.69;;;3.02;78.29
62600;BME280;48671;48.922;2.346;2022-12-07T06:44:43;101892.97;;;3.03;78.47
62600;BME280;48671;48.922;2.346;2022-12-07T06:47:09;101894.69;;;3.04;78.39
62600;BME280;48671;48.922;2.346;2022-12-07T06:49:34;101892.09;;;3.04;78.93
62600;BME280;48671;48.922;2.346;2022-12-07T06:51:59;101893.06;;;3.11;78.51
62600;BME280;48671;48.922;2.346;2022-12-07T06:54:25;101886.22;;;3.13;79.08
62600;BME280;48671;48.922;2.346;2022-12-07T06:56:50;101881.09;;;3.14;78.85
62600;BME280;48671;48.922;2.346;2022-12-07T06:59:15;101882.81;;;3.17;78.75
62600;BME280;48671;48.922;2.346;2022-12-07T07:01:41;101880.28;;;3.20;78.66
62600;BME280;48671;48.922;2.346;2022-12-07T07:04:06;101886.38;;;3.28;78.77
62600;BME280;48671;48.922;2.346;2022-12-07T07:06:32;101884.69;;;3.32;78.55
62600;BME280;48671;48.922;2.346;2022-12-07T07:08:57;101884.69;;;3.33;78.57
62600;BME280;48671;48.922;2.346;2022-12-07T07:11:22;101886.44;;;3.36;78.13
62600;BME280;48671;48.922;2.346;2022-12-07T07:13:47;101882.19;;;3.39;79.05
62600;BME280;48671;48.922;2.346;2022-12-07T07:16:13;101886.53;;;3.43;78.98
62600;BME280;48671;48.922;2.346;2022-12-07T07:18:38;101882.25;;;3.44;78.07
62600;BME280;48671;48.922;2.346;2022-12-07T07:21:04;101879.66;;;3.42;78.32
62600;BME280;48671;48.922;2.346;2022-12-07T07:23:30;101882.25;;;3.45;77.96
62600;BME280;48671;48.922;2.346;2022-12-07T07:25:55;101887.38;;;3.42;78.08
62600;BME280;48671;48.922;2.346;2022-12-07T07:28:20;101895.19;;;3.50;78.32
62600;BME280;48671;48.922;2.346;2022-12-07T07:30:46;101885.66;;;3.43;77.74
62600;BME280;48671;48.922;2.346;2022-12-07T07:33:12;101890.00;;;3.47;78.33
62600;BME280;48671;48.922;2.346;2022-12-07T07:35:37;101901.13;;;3.46;78.41
62600;BME280;48671;48.922;2.346;2022-12-07T07:38:04;101890.84;;;3.49;77.86
62600;BME280;48671;48.922;2.346;2022-12-07T07:40:30;101898.63;;;3.50;77.60
62600;BME280;48671;48.922;2.346;2022-12-07T07:42:55;101886.53;;;3.46;77.63
62600;BME280;48671;48.922;2.346;2022-12-07T07:45:22;101891.72;;;3.49;78.05
62600;BME280;48671;48.922;2.346;2022-12-07T07:47:48;101890.03;;;3.50;77.63
62600;BME280;48671;48.922;2.346;2022-12-07T07:50:14;101884.84;;;3.48;77.63
62600;BME280;48671;48.922;2.346;2022-12-07T07:52:40;101886.56;;;3.49;78.04
62600;BME280;48671;48.922;2.346;2022-12-07T07:55:06;101891.75;;;3.51;77.44
62600;BME280;48671;48.922;2.346;2022-12-07T07:57:34;101896.00;;;3.49;78.15
62600;BME280;48671;48.922;2.346;2022-12-07T07:59:59;101892.53;;;3.45;77.84
62600;BME280;48671;48.922;2.346;2022-12-07T08:02:25;101899.41;;;3.43;78.00
62600;BME280;48671;48.922;2.346;2022-12-07T08:04:50;101897.66;;;3.42;78.03
62600;BME280;48671;48.922;2.346;2022-12-07T08:07:15;101908.03;;;3.50;77.98
62600;BME280;48671;48.922;2.346;2022-12-07T08:09:41;101902.06;;;3.54;78.14
62600;BME280;48671;48.922;2.346;2022-12-07T08:12:07;101894.28;;;3.48;78.22
62600;BME280;48671;48.922;2.346;2022-12-07T08:14:32;101898.63;;;3.50;78.38
62600;BME280;48671;48.922;2.346;2022-12-07T08:16:58;101896.94;;;3.54;78.44
62600;BME280;48671;48.922;2.346;2022-12-07T08:19:24;101896.91;;;3.56;77.76
62600;BME280;48671;48.922;2.346;2022-12-07T08:21:49;101916.69;;;3.57;78.22
62600;BME280;48671;48.922;2.346;2022-12-07T08:24:15;101900.34;;;3.55;77.58
62600;BME280;48671;48.922;2.346;2022-12-07T08:26:41;101922.69;;;3.57;78.00
62600;BME280;48671;48.922;2.346;2022-12-07T08:29:07;101912.34;;;3.52;78.18
62600;BME280;48671;48.922;2.346;2022-12-07T08:31:33;101917.47;;;3.52;77.72
62600;BME280;48671;48.922;2.346;2022-12-07T08:33:58;101920.13;;;3.57;78.19
62600;BME280;48671;48.922;2.346;2022-12-07T08:36:24;101914.97;;;3.57;77.97
62600;BME280;48671;48.922;2.346;2022-12-07T08:38:49;101922.69;;;3.59;78.26
62600;BME280;48671;48.922;2.346;2022-12-07T08:41:16;101920.16;;;3.60;78.30
62600;BME280;48671;48.922;2.346;2022-12-07T08:43:41;101920.16;;;3.60;78.19
62600;BME280;48671;48.922;2.346;2022-12-07T08:46:11;101924.44;;;3.60;78.80
62600;BME280;48671;48.922;2.346;2022-12-07T08:48:49;101927.88;;;3.62;77.94
62600;BME280;48671;48.922;2.346;2022-12-07T08:51:15;101923.53;;;3.59;78.42
62600;BME280;48671;48.922;2.346;2022-12-07T08:53:41;101927.00;;;3.63;78.34
62600;BME280;48671;48.922;2.346;2022-12-07T08:56:07;101921.88;;;3.66;78.54
62600;BME280;48671;48.922;2.346;2022-12-07T08:58:34;101920.22;;;3.71;78.33
62600;BME280;48671;48.922;2.346;2022-12-07T09:01:00;101910.78;;;3.71;77.95
62600;BME280;48671;48.922;2.346;2022-12-07T09:03:26;101912.53;;;3.75;78.46
62600;BME280;48671;48.922;2.346;2022-12-07T09:05:53;101911.75;;;3.80;78.16
62600;BME280;48671;48.922;2.346;2022-12-07T09:08:19;101911.78;;;3.87;78.23
62600;BME280;48671;48.922;2.346;2022-12-07T09:10:44;101923.84;;;3.94;77.55
62600;BME280;48671;48.922;2.346;2022-12-07T09:13:10;101913.63;;;3.99;78.19
62600;BME280;48671;48.922;2.346;2022-12-07T09:15:36;101913.63;;;4.04;78.23
62600;BME280;48671;48.922;2.346;2022-12-07T09:18:01;101925.69;;;4.09;78.25
62600;BME280;48671;48.922;2.346;2022-12-07T09:20:26;101916.28;;;4.13;78.08
62600;BME280;48671;48.922;2.346;2022-12-07T09:22:51;101920.59;;;4.18;77.47
62600;BME280;48671;48.922;2.346;2022-12-07T09:25:17;101927.50;;;4.24;77.56
62600;BME280;48671;48.922;2.346;2022-12-07T09:27:42;101918.91;;;4.20;77.67
62600;BME280;48671;48.922;2.346;2022-12-07T09:30:08;101930.13;;;4.26;77.63
62600;BME280;48671;48.922;2.346;2022-12-07T09:32:33;101918.06;;;4.25;77.69
62600;BME280;48671;48.922;2.346;2022-12-07T09:34:59;101920.66;;;4.28;77.87
62600;BME280;48671;48.922;2.346;2022-12-07T09:37:24;101914.69;;;4.32;77.79
62600;BME280;48671;48.922;2.346;2022-12-07T09:39:49;101915.56;;;4.37;77.98
62600;BME280;48671;48.922;2.346;2022-12-07T09:44:50;101910.44;;;4.40;77.86
62600;BME280;48671;48.922;2.346;2022-12-07T09:47:15;101916.47;;;4.42;78.11
62600;BME280;48671;48.922;2.346;2022-12-07T09:49:40;101919.09;;;4.50;78.07
62600;BME280;48671;48.922;2.346;2022-12-07T09:54:36;101916.56;;;4.63;78.12
62600;BME280;48671;48.922;2.346;2022-12-07T09:57:03;101910.63;;;4.72;77.66
62600;BME280;48671;48.922;2.346;2022-12-07T09:59:29;101906.34;;;4.76;77.48
62600;BME280;48671;48.922;2.346;2022-12-07T10:01:55;101902.06;;;4.78;77.38
62600;BME280;48671;48.922;2.346;2022-12-07T10:04:26;101906.34;;;4.74;77.36
62600;BME280;48671;48.922;2.346;2022-12-07T10:06:52;101908.03;;;4.72;77.49
62600;BME280;48671;48.922;2.346;2022-12-07T10:09:20;101899.44;;;4.68;77.18
62600;BME280;48671;48.922;2.346;2022-12-07T10:12:10;101900.25;;;4.67;77.41
62600;BME280;48671;48.922;2.346;2022-12-07T10:14:39;101904.56;;;4.65;77.32
62600;BME280;48671;48.922;2.346;2022-12-07T10:17:33;101896.81;;;4.64;77.28
62600;BME280;48671;48.922;2.346;2022-12-07T10:22:37;101898.56;;;4.66;77.31
62600;BME280;48671;48.922;2.346;2022-12-07T10:25:18;101894.28;;;4.72;77.88
62600;BME280;48671;48.922;2.346;2022-12-07T10:27:57;101888.31;;;4.79;77.44
62600;BME280;48671;48.922;2.346;2022-12-07T10:30:23;101896.06;;;4.86;77.48
62600;BME280;48671;48.922;2.346;2022-12-07T10:32:49;101881.47;;;4.91;77.50
62600;BME280;48671;48.922;2.346;2022-12-07T10:35:30;101882.34;;;5.03;77.38
62600;BME280;48671;48.922;2.346;2022-12-07T10:37:58;101885.81;;;5.09;77.33
62600;BME280;48671;48.922;2.346;2022-12-07T10:43:00;101870.38;;;5.17;77.07
62600;BME280;48671;48.922;2.346;2022-12-07T10:45:26;101876.38;;;5.25;76.76
62600;BME280;48671;48.922;2.346;2022-12-07T10:51:12;101859.22;;;5.36;76.81
62600;BME280;48671;48.922;2.346;2022-12-07T10:57:25;101840.28;;;5.42;76.03
62600;BME280;48671;48.922;2.346;2022-12-07T11:00:00;101829.97;;;5.51;76.06
62600;BME280;48671;48.922;2.346;2022-12-07T11:05:27;101829.09;;;5.71;76.44
62600;BME280;48671;48.922;2.346;2022-12-07T11:10:48;101825.59;;;6.19;76.25
62600;BME280;48671;48.922;2.346;2022-12-07T11:13:28;101810.00;;;6.51;75.00
62600;BME280;48671;48.922;2.346;2022-12-07T11:26:32;101787.19;;;7.16;73.64
62600;BME280;48671;48.922;2.346;2022-12-07T11:34:42;101788.84;;;7.25;73.26
62600;BME280;48671;48.922;2.346;2022-12-07T11:37:16;101787.81;;;7.46;72.55
62600;BME280;48671;48.922;2.346;2022-12-07T11:39:50;101783.28;;;7.68;72.74
62600;BME280;48671;48.922;2.346;2022-12-07T11:42:30;101783.22;;;7.76;72.14
62600;BME280;48671;48.922;2.346;2022-12-07T11:45:21;101785.53;;;8.02;71.61
62600;BME280;48671;48.922;2.346;2022-12-07T11:50:41;101765.91;;;8.55;70.61
62600;BME280;48671;48.922;2.346;2022-12-07T12:06:33;101742.75;;;9.99;67.05
62600;BME280;48671;48.922;2.346;2022-12-07T12:09:15;101742.34;;;10.19;66.18
62600;BME280;48671;48.922;2.346;2022-12-07T12:14:26;101729.97;;;10.31;65.19
62600;BME280;48671;48.922;2.346;2022-12-07T12:17:19;101732.72;;;10.22;63.78
62600;BME280;48671;48.922;2.346;2022-12-07T12:22:20;101730.88;;;10.29;63.23
62600;BME280;48671;48.922;2.346;2022-12-07T12:24:51;101725.44;;;9.96;63.51
62600;BME280;48671;48.922;2.346;2022-12-07T12:27:30;101722.06;;;9.46;63.46
62600;BME280;48671;48.922;2.346;2022-12-07T12:30:03;101724.28;;;9.18;65.67
62600;BME280;48671;48.922;2.346;2022-12-07T12:32:38;101730.75;;;8.93;66.41
62600;BME280;48671;48.922;2.346;2022-12-07T12:35:30;101722.41;;;8.74;66.29
62600;BME280;48671;48.922;2.346;2022-12-07T12:40:54;101723.84;;;8.31;67.83
62600;BME280;48671;48.922;2.346;2022-12-07T12:51:42;101721.53;;;8.08;68.23
62600;BME280;48671;48.922;2.346;2022-12-07T12:54:29;101709.50;;;8.03;68.83
62600;BME280;48671;48.922;2.346;2022-12-07T12:59:33;101703.53;;;7.94;68.51
62600;BME280;48671;48.922;2.346;2022-12-07T13:18:41;101678.03;;;9.85;66.33
62600;BME280;48671;48.922;2.346;2022-12-07T13:23:54;101684.13;;;10.65;64.58
62600;BME280;48671;48.922;2.346;2022-12-07T13:31:36;101670.38;;;10.60;63.67
62600;BME280;48671;48.922;2.346;2022-12-07T13:34:05;101661.47;;;10.31;64.07
62600;BME280;48671;48.922;2.346;2022-12-07T13:36:34;101662.63;;;10.16;64.08
62600;BME280;48671;48.922;2.346;2022-12-07T13:41:41;101660.78;;;9.81;64.39
62600;BME280;48671;48.922;2.346;2022-12-07T13:44:16;101656.78;;;9.65;64.63
62600;BME280;48671;48.922;2.346;2022-12-07T13:49:39;101642.47;;;9.44;64.65
62600;BME280;48671;48.922;2.346;2022-12-07T13:52:26;101645.31;;;9.30;65.59
62600;BME280;48671;48.922;2.346;2022-12-07T13:57:31;101646.31;;;9.23;65.81
62600;BME280;48671;48.922;2.346;2022-12-07T14:00:00;101647.19;;;9.23;65.86
62600;BME280;48671;48.922;2.346;2022-12-07T14:02:28;101633.31;;;9.24;65.56
62600;BME280;48671;48.922;2.346;2022-12-07T14:05:08;101635.91;;;9.24;65.93
62600;BME280;48671;48.922;2.346;2022-12-07T14:07:34;101624.50;;;9.33;65.67
62600;BME280;48671;48.922;2.346;2022-12-07T14:10:04;101620.03;;;9.38;65.75
62600;BME280;48671;48.922;2.346;2022-12-07T14:12:31;101621.84;;;9.36;65.22
62600;BME280;48671;48.922;2.346;2022-12-07T14:14:59;101622.09;;;9.22;64.98
62600;BME280;48671;48.922;2.346;2022-12-07T14:17:27;101618.84;;;9.11;65.35
62600;BME280;48671;48.922;2.346;2022-12-07T14:19:54;101624.16;;;9.03;65.29
62600;BME280;48671;48.922;2.346;2022-12-07T14:22:24;101619.97;;;8.96;65.37
62600;BME280;48671;48.922;2.346;2022-12-07T14:24:57;101613.16;;;8.90;65.62
62600;BME280;48671;48.922;2.346;2022-12-07T14:27:23;101628.75;;;8.87;65.74
62600;BME280;48671;48.922;2.346;2022-12-07T14:29:55;101618.47;;;8.83;65.83
62600;BME280;48671;48.922;2.346;2022-12-07T14:32:24;101622.88;;;8.76;65.86
62600;BME280;48671;48.922;2.346;2022-12-07T14:35:10;101612.78;;;8.61;66.21
62600;BME280;48671;48.922;2.346;2022-12-07T14:37:36;101620.69;;;8.52;66.18
62600;BME280;48671;48.922;2.346;2022-12-07T14:40:03;101617.38;;;8.42;66.25
62600;BME280;48671;48.922;2.346;2022-12-07T14:42:30;101620.03;;;8.36;66.72
62600;BME280;48671;48.922;2.346;2022-12-07T14:44:56;101620.97;;;8.32;66.71
62600;BME280;48671;48.922;2.346;2022-12-07T14:47:22;101609.75;;;8.31;67.05
62600;BME280;48671;48.922;2.346;2022-12-07T14:49:47;101615.78;;;8.30;66.89
62600;BME280;48671;48.922;2.346;2022-12-07T14:52:23;101615.03;;;8.24;67.21
62600;BME280;48671;48.922;2.346;2022-12-07T14:54:49;101609.97;;;8.16;67.01
62600;BME280;48671;48.922;2.346;2022-12-07T14:57:15;101612.63;;;8.10;67.20
62600;BME280;48671;48.922;2.346;2022-12-07T14:59:40;101607.53;;;8.04;67.79
62600;BME280;48671;48.922;2.346;2022-12-07T15:02:06;101604.97;;;8.02;67.69
62600;BME280;48671;48.922;2.346;2022-12-07T15:04:31;101598.09;;;8.00;67.58
62600;BME280;48671;48.922;2.346;2022-12-07T15:06:59;101604.22;;;7.95;67.57
62600;BME280;48671;48.922;2.346;2022-12-07T15:09:25;101593.88;;;7.92;68.07
62600;BME280;48671;48.922;2.346;2022-12-07T15:11:50;101593.88;;;7.92;67.66
62600;BME280;48671;48.922;2.346;2022-12-07T15:14:16;101591.34;;;7.88;67.97
62600;BME280;48671;48.922;2.346;2022-12-07T15:16:42;101600.81;;;7.90;68.19
62600;BME280;48671;48.922;2.346;2022-12-07T15:19:19;101592.25;;;7.85;67.93
62600;BME280;48671;48.922;2.346;2022-12-07T15:21:47;101589.63;;;7.87;68.13
62600;BME280;48671;48.922;2.346;2022-12-07T15:24:13;101595.72;;;7.84;68.01